sensor_id;sensor_type;location;lat;lon;timestamp;pressure;altitude;pressure_sealevel;temperature;humidity
53506;BME280;39388;50.936;6.848;2023-02-17T00:02:17;101539.28;;;11.72;79.36
53506;BME280;39388;50.936;6.848;2023-02-17T00:04:48;101528.06;;;11.73;78.95
53506;BME280;39388;50.936;6.848;2023-02-17T00:07:18;101524.63;;;11.71;78.97
53506;BME280;39388;50.936;6.848;2023-02-17T00:09:48;101520.31;;;11.69;79.08
53506;BME280;39388;50.936;6.848;2023-02-17T00:12:19;101533.25;;;11.73;79.38
53506;BME280;39388;50.936;6.848;2023-02-17T00:14:49;101532.44;;;11.82;79.03
53506;BME280;39388;50.936;6.848;2023-02-17T00:17:20;101541.06;;;11.86;79.23
53506;BME280;39388;50.936;6.848;2023-02-17T00:19:53;101538.47;;;11.86;79.30
53506;BME280;39388;50.936;6.848;2023-02-17T00:22:23;101533.28;;;11.79;79.40
53506;BME280;39388;50.936;6.848;2023-02-17T00:24:54;101532.38;;;11.76;78.91
53506;BME280;39388;50.936;6.848;2023-02-17T00:27:24;101535.03;;;11.85;78.96
53506;BME280;39388;50.936;6.848;2023-02-17T00:29:54;101519.47;;;11.76;79.73
53506;BME280;39388;50.936;6.848;2023-02-17T00:32:25;101525.53;;;11.83;79.58
53506;BME280;39388;50.936;6.848;2023-02-17T00:34:55;101504.00;;;11.79;79.62
53506;BME280;39388;50.936;6.848;2023-02-17T00:37:27;101508.31;;;11.80;79.57
53506;BME280;39388;50.936;6.848;2023-02-17T00:39:57;101510.06;;;11.81;79.63
53506;BME280;39388;50.936;6.848;2023-02-17T00:42:28;101516.06;;;11.80;79.70
53506;BME280;39388;50.936;6.848;2023-02-17T00:44:58;101493.63;;;11.73;79.54
53506;BME280;39388;50.936;6.848;2023-02-17T00:47:28;101503.09;;;11.77;79.99
53506;BME280;39388;50.936;6.848;2023-02-17T00:49:59;101519.47;;;11.77;79.98
53506;BME280;39388;50.936;6.848;2023-02-17T00:52:29;101505.69;;;11.77;79.55
53506;BME280;39388;50.936;6.848;2023-02-17T00:54:59;101508.25;;;11.74;79.60
53506;BME280;39388;50.936;6.848;2023-02-17T00:57:30;101526.41;;;11.82;79.67
53506;BME280;39388;50.936;6.848;2023-02-17T01:00:02;101520.38;;;11.81;79.95
53506;BME280;39388;50.936;6.848;2023-02-17T01:02:33;101516.03;;;11.77;79.55
53506;BME280;39388;50.936;6.848;2023-02-17T01:05:03;101515.19;;;11.79;79.80
53506;BME280;39388;50.936;6.848;2023-02-17T01:07:34;101504.88;;;11.78;79.95
53506;BME280;39388;50.936;6.848;2023-02-17T01:10:07;101515.22;;;11.86;79.89
53506;BME280;39388;50.936;6.848;2023-02-17T01:12:38;101501.41;;;11.81;80.02
53506;BME280;39388;50.936;6.848;2023-02-17T01:15:09;101508.34;;;11.83;79.65
53506;BME280;39388;50.936;6.848;2023-02-17T01:17:39;101504.03;;;11.88;80.14
53506;BME280;39388;50.936;6.848;2023-02-17T01:20:10;101489.38;;;11.83;79.92
53506;BME280;39388;50.936;6.848;2023-02-17T01:22:40;101491.09;;;11.82;79.84
53506;BME280;39388;50.936;6.848;2023-02-17T01:25:10;101485.94;;;11.87;79.76
53506;BME280;39388;50.936;6.848;2023-02-17T01:27:41;101479.91;;;11.82;79.82
53506;BME280;39388;50.936;6.848;2023-02-17T01:30:12;101478.19;;;11.82;79.77
53506;BME280;39388;50.936;6.848;2023-02-17T01:32:42;101485.94;;;11.84;79.89
53506;BME280;39388;50.936;6.848;2023-02-17T01:35:13;101478.16;;;11.85;79.70
53506;BME280;39388;50.936;6.848;2023-02-17T01:37:43;101477.34;;;11.88;79.83
53506;BME280;39388;50.936;6.848;2023-02-17T01:40:14;101469.56;;;11.85;79.82
53506;BME280;39388;50.936;6.848;2023-02-17T01:42:45;101460.09;;;11.82;79.54
53506;BME280;39388;50.936;6.848;2023-02-17T01:47:59;101474.75;;;11.91;79.70
53506;BME280;39388;50.936;6.848;2023-02-17T01:50:34;101468.72;;;11.86;79.85
53506;BME280;39388;50.936;6.848;2023-02-17T01:53:08;101467.88;;;11.90;79.50
53506;BME280;39388;50.936;6.848;2023-02-17T01:55:41;101454.06;;;11.85;79.87
53506;BME280;39388;50.936;6.848;2023-02-17T01:58:14;101466.13;;;11.93;79.64
53506;BME280;39388;50.936;6.848;2023-02-17T02:00:47;101458.38;;;11.93;79.67
53506;BME280;39388;50.936;6.848;2023-02-17T02:03:19;101454.94;;;11.90;79.59
53506;BME280;39388;50.936;6.848;2023-02-17T02:05:50;101439.44;;;11.82;79.92
53506;BME280;39388;50.936;6.848;2023-02-17T02:08:20;101443.75;;;11.88;79.91
53506;BME280;39388;50.936;6.848;2023-02-17T02:11:00;101460.97;;;11.95;79.95
53506;BME280;39388;50.936;6.848;2023-02-17T02:13:30;101461.84;;;11.96;80.15
53506;BME280;39388;50.936;6.848;2023-02-17T02:16:09;101456.66;;;11.94;80.05
53506;BME280;39388;50.936;6.848;2023-02-17T02:19:02;101452.34;;;11.96;80.21
53506;BME280;39388;50.936;6.848;2023-02-17T02:24:27;101429.94;;;11.87;79.82
53506;BME280;39388;50.936;6.848;2023-02-17T02:30:20;101448.06;;;11.97;80.14
53506;BME280;39388;50.936;6.848;2023-02-17T02:38:27;101438.59;;;11.96;79.95
53506;BME280;39388;50.936;6.848;2023-02-17T02:41:05;101434.28;;;11.94;80.37
53506;BME280;39388;50.936;6.848;2023-02-17T02:43:36;101418.75;;;11.88;79.94
53506;BME280;39388;50.936;6.848;2023-02-17T02:46:07;101435.13;;;11.95;80.16
53506;BME280;39388;50.936;6.848;2023-02-17T02:48:56;101424.78;;;11.95;80.33
53506;BME280;39388;50.936;6.848;2023-02-17T02:54:55;101428.25;;;11.96;79.90
53506;BME280;39388;50.936;6.848;2023-02-17T02:57:38;101410.16;;;11.96;80.15
53506;BME280;39388;50.936;6.848;2023-02-17T03:02:57;101419.63;;;11.95;80.26
53506;BME280;39388;50.936;6.848;2023-02-17T03:08:38;101409.28;;;11.93;80.25
53506;BME280;39388;50.936;6.848;2023-02-17T03:11:11;101415.31;;;11.92;79.76
53506;BME280;39388;50.936;6.848;2023-02-17T03:13:42;101409.25;;;11.92;80.09
53506;BME280;39388;50.936;6.848;2023-02-17T03:16:12;101414.44;;;11.92;80.21
53506;BME280;39388;50.936;6.848;2023-02-17T03:18:43;101418.75;;;11.93;80.33
53506;BME280;39388;50.936;6.848;2023-02-17T03:21:15;101416.19;;;11.94;80.08
53506;BME280;39388;50.936;6.848;2023-02-17T03:23:45;101413.59;;;11.94;80.02
53506;BME280;39388;50.936;6.848;2023-02-17T03:26:15;101411.88;;;11.93;80.10
53506;BME280;39388;50.936;6.848;2023-02-17T03:28:46;101400.66;;;11.88;80.43
53506;BME280;39388;50.936;6.848;2023-02-17T03:31:16;101387.72;;;11.85;80.33
53506;BME280;39388;50.936;6.848;2023-02-17T03:33:46;101392.91;;;11.93;80.19
53506;BME280;39388;50.936;6.848;2023-02-17T03:36:17;101399.81;;;11.92;80.22
53506;BME280;39388;50.936;6.848;2023-02-17T03:38:47;101399.81;;;11.92;79.99
53506;BME280;39388;50.936;6.848;2023-02-17T03:41:18;101388.59;;;11.86;80.27
53506;BME280;39388;50.936;6.848;2023-02-17T03:43:48;101403.25;;;11.93;80.07
53506;BME280;39388;50.936;6.848;2023-02-17T03:46:20;101386.03;;;11.84;80.06
53506;BME280;39388;50.936;6.848;2023-02-17T03:48:50;101401.53;;;11.90;79.94
53506;BME280;39388;50.936;6.848;2023-02-17T03:51:23;101401.53;;;11.93;80.19
53506;BME280;39388;50.936;6.848;2023-02-17T03:53:53;101399.78;;;11.94;80.40
53506;BME280;39388;50.936;6.848;2023-02-17T03:56:24;101394.63;;;11.94;80.17
53506;BME280;39388;50.936;6.848;2023-02-17T03:58:54;101385.16;;;11.94;79.96
53506;BME280;39388;50.936;6.848;2023-02-17T04:01:24;101387.75;;;11.94;80.25
53506;BME280;39388;50.936;6.848;2023-02-17T04:03:55;101365.38;;;11.84;80.41
53506;BME280;39388;50.936;6.848;2023-02-17T04:06:25;101356.69;;;11.76;80.09
53506;BME280;39388;50.936;6.848;2023-02-17T04:08:56;101392.06;;;11.96;79.59
53506;BME280;39388;50.936;6.848;2023-02-17T04:11:26;101406.69;;;11.98;79.98
53506;BME280;39388;50.936;6.848;2023-02-17T04:13:56;101377.41;;;11.84;79.65
53506;BME280;39388;50.936;6.848;2023-02-17T04:16:27;101404.13;;;12.01;79.87
53506;BME280;39388;50.936;6.848;2023-02-17T04:18:57;101400.66;;;11.99;79.84
53506;BME280;39388;50.936;6.848;2023-02-17T04:21:28;101386.88;;;12.00;79.89
53506;BME280;39388;50.936;6.848;2023-02-17T04:24:02;101398.94;;;12.01;79.66
53506;BME280;39388;50.936;6.848;2023-02-17T04:26:33;101387.75;;;12.02;79.87
53506;BME280;39388;50.936;6.848;2023-02-17T04:29:04;101397.22;;;12.05;79.69
53506;BME280;39388;50.936;6.848;2023-02-17T04:31:34;101397.22;;;12.03;79.47
53506;BME280;39388;50.936;6.848;2023-02-17T04:34:04;101401.53;;;12.04;79.52
53506;BME280;39388;50.936;6.848;2023-02-17T04:36:35;101393.78;;;11.98;79.58
53506;BME280;39388;50.936;6.848;2023-02-17T04:39:05;101392.06;;;11.96;79.67
53506;BME280;39388;50.936;6.848;2023-02-17T04:41:35;101407.53;;;12.06;79.67
53506;BME280;39388;50.936;6.848;2023-02-17T04:44:06;101398.09;;;12.07;79.54
53506;BME280;39388;50.936;6.848;2023-02-17T04:46:36;101395.50;;;12.04;79.57
53506;BME280;39388;50.936;6.848;2023-02-17T04:49:06;101397.22;;;12.08;79.50
53506;BME280;39388;50.936;6.848;2023-02-17T04:51:37;101407.56;;;12.08;79.42
53506;BME280;39388;50.936;6.848;2023-02-17T04:54:07;101386.91;;;12.03;78.95
53506;BME280;39388;50.936;6.848;2023-02-17T04:56:37;101391.19;;;12.06;78.93
53506;BME280;39388;50.936;6.848;2023-02-17T04:59:08;101397.22;;;12.03;79.43
53506;BME280;39388;50.936;6.848;2023-02-17T05:01:38;101399.81;;;12.05;79.08
53506;BME280;39388;50.936;6.848;2023-02-17T05:04:09;101386.88;;;12.00;78.95
53506;BME280;39388;50.936;6.848;2023-02-17T05:06:39;101386.88;;;12.06;79.38
53506;BME280;39388;50.936;6.848;2023-02-17T05:09:09;101392.06;;;12.08;79.20
53506;BME280;39388;50.936;6.848;2023-02-17T05:11:40;101401.53;;;12.10;78.96
53506;BME280;39388;50.936;6.848;2023-02-17T05:14:10;101395.50;;;12.10;79.19
53506;BME280;39388;50.936;6.848;2023-02-17T05:16:41;101398.94;;;12.10;78.73
53506;BME280;39388;50.936;6.848;2023-02-17T05:19:11;101398.09;;;12.10;78.81
53506;BME280;39388;50.936;6.848;2023-02-17T05:25:08;101399.81;;;12.11;78.52
53506;BME280;39388;50.936;6.848;2023-02-17T05:27:38;101391.19;;;12.10;78.55
53506;BME280;39388;50.936;6.848;2023-02-17T05:30:09;101387.75;;;12.12;78.60
53506;BME280;39388;50.936;6.848;2023-02-17T05:32:39;101391.19;;;12.12;78.78
53506;BME280;39388;50.936;6.848;2023-02-17T05:38:38;101386.00;;;12.15;78.61
53506;BME280;39388;50.936;6.848;2023-02-17T05:44:35;101373.94;;;12.17;78.83
53506;BME280;39388;50.936;6.848;2023-02-17T05:47:05;101339.50;;;11.95;78.73
53506;BME280;39388;50.936;6.848;2023-02-17T05:49:36;101358.44;;;12.16;78.90
53506;BME280;39388;50.936;6.848;2023-02-17T05:52:06;101373.94;;;12.22;78.93
53506;BME280;39388;50.936;6.848;2023-02-17T05:54:37;101367.91;;;12.28;79.28
53506;BME280;39388;50.936;6.848;2023-02-17T05:57:14;101342.06;;;12.18;78.80
53506;BME280;39388;50.936;6.848;2023-02-17T06:00:14;101357.56;;;12.29;79.18
53506;BME280;39388;50.936;6.848;2023-02-17T06:02:45;101310.22;;;11.98;78.95
53506;BME280;39388;50.936;6.848;2023-02-17T06:05:16;101337.75;;;12.13;78.97
53506;BME280;39388;50.936;6.848;2023-02-17T06:07:46;101253.38;;;11.68;79.14
53506;BME280;39388;50.936;6.848;2023-02-17T06:10:16;101254.22;;;11.70;78.88
53506;BME280;39388;50.936;6.848;2023-02-17T06:12:47;101296.41;;;11.94;79.33
53506;BME280;39388;50.936;6.848;2023-02-17T06:15:17;101245.63;;;11.63;79.17
53506;BME280;39388;50.936;6.848;2023-02-17T06:17:48;101255.94;;;11.65;79.32
53506;BME280;39388;50.936;6.848;2023-02-17T06:20:18;101379.09;;;12.37;79.34
53506;BME280;39388;50.936;6.848;2023-02-17T06:22:48;101310.22;;;12.02;79.32
53506;BME280;39388;50.936;6.848;2023-02-17T06:25:19;101361.88;;;12.41;79.25
53506;BME280;39388;50.936;6.848;2023-02-17T06:27:50;101311.06;;;12.06;79.57
53506;BME280;39388;50.936;6.848;2023-02-17T06:30:20;101275.75;;;11.86;79.61
53506;BME280;39388;50.936;6.848;2023-02-17T06:32:52;101324.84;;;12.13;79.64
53506;BME280;39388;50.936;6.848;2023-02-17T06:35:22;101282.66;;;11.93;79.50
53506;BME280;39388;50.936;6.848;2023-02-17T06:37:53;101303.31;;;12.06;79.54
53506;BME280;39388;50.936;6.848;2023-02-17T06:40:23;101286.09;;;11.99;79.79
53506;BME280;39388;50.936;6.848;2023-02-17T06:42:53;101266.28;;;11.94;79.70
53506;BME280;39388;50.936;6.848;2023-02-17T06:53:25;101345.50;;;12.39;79.92
53506;BME280;39388;50.936;6.848;2023-02-17T06:55:55;101369.56;;;12.49;79.84
53506;BME280;39388;50.936;6.848;2023-02-17T06:58:40;101372.19;;;12.50;80.32
53506;BME280;39388;50.936;6.848;2023-02-17T07:01:16;101379.06;;;12.50;79.91
53506;BME280;39388;50.936;6.848;2023-02-17T07:03:47;101372.16;;;12.49;80.57
53506;BME280;39388;50.936;6.848;2023-02-17T07:06:18;101355.81;;;12.42;80.15
53506;BME280;39388;50.936;6.848;2023-02-17T07:15:30;101368.72;;;12.53;80.49
53506;BME280;39388;50.936;6.848;2023-02-17T07:37:45;101296.34;;;12.33;80.52
53506;BME280;39388;50.936;6.848;2023-02-17T07:46:47;101332.47;;;12.61;80.37
53506;BME280;39388;50.936;6.848;2023-02-17T07:49:17;101352.28;;;12.73;80.34
53506;BME280;39388;50.936;6.848;2023-02-17T07:51:47;101356.56;;;12.78;80.53
53506;BME280;39388;50.936;6.848;2023-02-17T07:54:18;101333.31;;;12.69;80.73
53506;BME280;39388;50.936;6.848;2023-02-17T07:56:48;101342.75;;;12.78;80.70
53506;BME280;39388;50.936;6.848;2023-02-17T07:59:18;101341.03;;;12.83;80.83
53506;BME280;39388;50.936;6.848;2023-02-17T08:01:49;101325.53;;;12.77;80.82
53506;BME280;39388;50.936;6.848;2023-02-17T08:04:19;101335.84;;;12.83;81.01
53506;BME280;39388;50.936;6.848;2023-02-17T08:06:49;101340.16;;;12.87;81.02
53506;BME280;39388;50.936;6.848;2023-02-17T08:09:20;101348.75;;;12.91;80.96
53506;BME280;39388;50.936;6.848;2023-02-17T08:12:16;101337.53;;;12.92;81.06
53506;BME280;39388;50.936;6.848;2023-02-17T08:15:07;101336.66;;;12.96;80.86
53506;BME280;39388;50.936;6.848;2023-02-17T08:17:39;101324.56;;;12.93;81.08
53506;BME280;39388;50.936;6.848;2023-02-17T08:20:09;101328.94;;;12.91;81.00
53506;BME280;39388;50.936;6.848;2023-02-17T08:22:40;101343.50;;;13.03;81.08
53506;BME280;39388;50.936;6.848;2023-02-17T08:25:10;101341.78;;;13.05;80.97
53506;BME280;39388;50.936;6.848;2023-02-17T08:27:40;101357.28;;;13.10;81.32
53506;BME280;39388;50.936;6.848;2023-02-17T08:30:11;101345.22;;;13.10;81.24
53506;BME280;39388;50.936;6.848;2023-02-17T08:32:44;101351.22;;;13.15;81.18
53506;BME280;39388;50.936;6.848;2023-02-17T08:35:16;101346.91;;;13.16;80.56
53506;BME280;39388;50.936;6.848;2023-02-17T08:37:48;101347.75;;;13.20;80.90
53506;BME280;39388;50.936;6.848;2023-02-17T08:40:19;101346.00;;;13.23;80.95
53506;BME280;39388;50.936;6.848;2023-02-17T08:42:49;101346.84;;;13.27;80.83
53506;BME280;39388;50.936;6.848;2023-02-17T08:45:20;101345.09;;;13.30;80.81
53506;BME280;39388;50.936;6.848;2023-02-17T08:47:50;101343.38;;;13.28;80.72
53506;BME280;39388;50.936;6.848;2023-02-17T08:50:20;101347.69;;;13.30;80.49
53506;BME280;39388;50.936;6.848;2023-02-17T08:52:52;101351.09;;;13.37;80.58
53506;BME280;39388;50.936;6.848;2023-02-17T08:55:23;101356.28;;;13.39;80.48
53506;BME280;39388;50.936;6.848;2023-02-17T08:57:53;101344.19;;;13.44;80.23
53506;BME280;39388;50.936;6.848;2023-02-17T09:00:24;101347.56;;;13.55;80.16
53506;BME280;39388;50.936;6.848;2023-02-17T09:02:54;101332.06;;;13.51;80.13
53506;BME280;39388;50.936;6.848;2023-02-17T09:05:24;101344.09;;;13.56;79.76
53506;BME280;39388;50.936;6.848;2023-02-17T09:07:55;101342.31;;;13.66;79.79
53506;BME280;39388;50.936;6.848;2023-02-17T09:10:26;101345.69;;;13.73;79.52
53506;BME280;39388;50.936;6.848;2023-02-17T09:12:56;101344.78;;;13.78;79.23
53506;BME280;39388;50.936;6.848;2023-02-17T09:15:27;101338.72;;;13.83;78.99
53506;BME280;39388;50.936;6.848;2023-02-17T09:17:57;101334.28;;;13.92;79.15
53506;BME280;39388;50.936;6.848;2023-02-17T09:20:28;101344.63;;;13.96;78.74
53506;BME280;39388;50.936;6.848;2023-02-17T09:22:58;101335.09;;;13.99;78.60
53506;BME280;39388;50.936;6.848;2023-02-17T09:25:28;101348.78;;;14.14;78.43
53506;BME280;39388;50.936;6.848;2023-02-17T09:27:59;101338.47;;;14.09;78.18
53506;BME280;39388;50.936;6.848;2023-02-17T09:30:29;101351.34;;;14.20;77.94
53506;BME280;39388;50.936;6.848;2023-02-17T09:33:00;101349.50;;;14.31;77.96
53506;BME280;39388;50.936;6.848;2023-02-17T09:35:31;101367.53;;;14.45;77.55
53506;BME280;39388;50.936;6.848;2023-02-17T09:38:02;101346.78;;;14.42;77.23
53506;BME280;39388;50.936;6.848;2023-02-17T09:40:47;101353.50;;;14.60;76.85
53506;BME280;39388;50.936;6.848;2023-02-17T09:43:20;101343.16;;;14.57;76.62
53506;BME280;39388;50.936;6.848;2023-02-17T09:45:56;101352.56;;;14.67;76.61
53506;BME280;39388;50.936;6.848;2023-02-17T09:48:31;101355.94;;;14.74;76.36
53506;BME280;39388;50.936;6.848;2023-02-17T09:51:12;101363.69;;;14.82;75.88
53506;BME280;39388;50.936;6.848;2023-02-17T09:54:02;101369.63;;;14.90;75.42
53506;BME280;39388;50.936;6.848;2023-02-17T09:56:37;101375.63;;;14.95;75.79
53506;BME280;39388;50.936;6.848;2023-02-17T09:59:20;101375.53;;;15.03;75.50
53506;BME280;39388;50.936;6.848;2023-02-17T10:01:54;101371.16;;;15.07;75.18
53506;BME280;39388;50.936;6.848;2023-02-17T10:04:27;101374.41;;;15.23;75.05
53506;BME280;39388;50.936;6.848;2023-02-17T10:07:12;101381.28;;;15.27;74.90
53506;BME280;39388;50.936;6.848;2023-02-17T10:09:57;101379.41;;;15.35;74.58
53506;BME280;39388;50.936;6.848;2023-02-17T10:12:37;101365.53;;;15.36;74.47
53506;BME280;39388;50.936;6.848;2023-02-17T10:15:15;101378.38;;;15.49;74.19
53506;BME280;39388;50.936;6.848;2023-02-17T10:20:32;101391.97;;;15.66;73.73
53506;BME280;39388;50.936;6.848;2023-02-17T10:23:08;101369.53;;;15.62;73.78
53506;BME280;39388;50.936;6.848;2023-02-17T10:40:18;101379.41;;;15.93;72.35
53506;BME280;39388;50.936;6.848;2023-02-17T10:42:54;101364.63;;;15.97;72.56
53506;BME280;39388;50.936;6.848;2023-02-17T10:48:10;101378.91;;;16.26;71.90
53506;BME280;39388;50.936;6.848;2023-02-17T10:50:43;101377.00;;;16.34;71.58
53506;BME280;39388;50.936;6.848;2023-02-17T10:53:17;101385.59;;;16.39;71.16
53506;BME280;39388;50.936;6.848;2023-02-17T10:58:28;101388.13;;;16.42;71.19
53506;BME280;39388;50.936;6.848;2023-02-17T11:01:02;101376.91;;;16.39;71.13
53506;BME280;39388;50.936;6.848;2023-02-17T11:03:35;101386.34;;;16.44;71.07
53506;BME280;39388;50.936;6.848;2023-02-17T11:06:37;101383.00;;;16.37;70.91
53506;BME280;39388;50.936;6.848;2023-02-17T11:11:59;101373.38;;;16.43;71.16
53506;BME280;39388;50.936;6.848;2023-02-17T11:14:32;101379.19;;;16.57;71.08
53506;BME280;39388;50.936;6.848;2023-02-17T11:17:13;101385.28;;;16.56;70.97
53506;BME280;39388;50.936;6.848;2023-02-17T11:20:00;101362.03;;;16.47;70.75
53506;BME280;39388;50.936;6.848;2023-02-17T11:22:37;101369.03;;;16.43;70.96
53506;BME280;39388;50.936;6.848;2023-02-17T11:27:59;101357.06;;;16.33;70.54
53506;BME280;39388;50.936;6.848;2023-02-17T11:30:32;101351.97;;;16.28;70.80
53506;BME280;39388;50.936;6.848;2023-02-17T11:33:13;101370.00;;;16.39;70.50
53506;BME280;39388;50.936;6.848;2023-02-17T11:35:53;101373.44;;;16.41;70.73
53506;BME280;39388;50.936;6.848;2023-02-17T11:38:27;101368.13;;;16.44;70.58
53506;BME280;39388;50.936;6.848;2023-02-17T11:41:03;101363.81;;;16.43;70.52
53506;BME280;39388;50.936;6.848;2023-02-17T11:43:34;101362.94;;;16.44;70.67
53506;BME280;39388;50.936;6.848;2023-02-17T11:46:22;101362.91;;;16.46;70.31
53506;BME280;39388;50.936;6.848;2023-02-17T11:52:18;101356.50;;;16.64;70.30
53506;BME280;39388;50.936;6.848;2023-02-17T11:58:16;101328.41;;;16.78;69.73
53506;BME280;39388;50.936;6.848;2023-02-17T12:03:53;101333.53;;;16.83;69.30
53506;BME280;39388;50.936;6.848;2023-02-17T12:06:35;101325.75;;;16.81;69.49
53506;BME280;39388;50.936;6.848;2023-02-17T12:09:15;101321.44;;;16.80;69.75
53506;BME280;39388;50.936;6.848;2023-02-17T12:11:57;101310.22;;;16.77;69.59
53506;BME280;39388;50.936;6.848;2023-02-17T12:17:49;101330.03;;;16.84;69.28
53506;BME280;39388;50.936;6.848;2023-02-17T12:37:27;101332.94;;;17.11;67.89
53506;BME280;39388;50.936;6.848;2023-02-17T12:40:09;101331.16;;;17.13;67.71
53506;BME280;39388;50.936;6.848;2023-02-17T12:42:52;101319.13;;;17.07;67.58
53506;BME280;39388;50.936;6.848;2023-02-17T12:45:36;101302.66;;;17.05;67.68
53506;BME280;39388;50.936;6.848;2023-02-17T12:48:30;101317.56;;;16.98;67.52
53506;BME280;39388;50.936;6.848;2023-02-17T12:51:26;101321.78;;;17.06;67.52
53506;BME280;39388;50.936;6.848;2023-02-17T12:54:06;101303.53;;;17.04;67.43
53506;BME280;39388;50.936;6.848;2023-02-17T12:56:51;101293.88;;;17.09;67.26
53506;BME280;39388;50.936;6.848;2023-02-17T13:02:10;101312.78;;;17.19;67.13
53506;BME280;39388;50.936;6.848;2023-02-17T13:04:43;101295.38;;;17.20;66.61
53506;BME280;39388;50.936;6.848;2023-02-17T13:10:18;101305.44;;;17.37;66.66
53506;BME280;39388;50.936;6.848;2023-02-17T13:13:28;101299.25;;;17.41;66.41
53506;BME280;39388;50.936;6.848;2023-02-17T13:16:07;101294.94;;;17.40;66.14
53506;BME280;39388;50.936;6.848;2023-02-17T13:18:42;101292.91;;;17.51;65.92
53506;BME280;39388;50.936;6.848;2023-02-17T13:24:00;101291.00;;;17.58;65.99
53506;BME280;39388;50.936;6.848;2023-02-17T13:26:33;101278.09;;;17.55;65.80
53506;BME280;39388;50.936;6.848;2023-02-17T13:29:32;101295.28;;;17.62;65.86
53506;BME280;39388;50.936;6.848;2023-02-17T13:32:10;101286.91;;;17.49;65.74
53506;BME280;39388;50.936;6.848;2023-02-17T13:34:42;101293.22;;;17.40;65.94
53506;BME280;39388;50.936;6.848;2023-02-17T13:39:47;101285.78;;;17.22;66.09
53506;BME280;39388;50.936;6.848;2023-02-17T13:42:38;101291.69;;;17.30;66.03
53506;BME280;39388;50.936;6.848;2023-02-17T13:45:16;101304.47;;;17.41;66.18
53506;BME280;39388;50.936;6.848;2023-02-17T13:47:49;101289.00;;;17.35;66.39
53506;BME280;39388;50.936;6.848;2023-02-17T13:50:32;101295.72;;;17.43;65.58
53506;BME280;39388;50.936;6.848;2023-02-17T13:53:41;101285.38;;;17.40;65.56
53506;BME280;39388;50.936;6.848;2023-02-17T13:56:26;101305.34;;;17.41;65.42
53506;BME280;39388;50.936;6.848;2023-02-17T13:59:12;101315.06;;;17.35;65.18
53506;BME280;39388;50.936;6.848;2023-02-17T14:01:46;101324.91;;;17.20;65.54
53506;BME280;39388;50.936;6.848;2023-02-17T14:04:31;101336.97;;;17.24;66.08
53506;BME280;39388;50.936;6.848;2023-02-17T14:07:03;101325.13;;;17.11;66.13
53506;BME280;39388;50.936;6.848;2023-02-17T14:09:34;101330.38;;;17.08;66.40
53506;BME280;39388;50.936;6.848;2023-02-17T14:12:06;101314.06;;;17.00;66.35
53506;BME280;39388;50.936;6.848;2023-02-17T14:14:39;101328.88;;;16.99;66.68
53506;BME280;39388;50.936;6.848;2023-02-17T14:17:27;101326.44;;;16.91;66.42
53506;BME280;39388;50.936;6.848;2023-02-17T14:19:58;101326.44;;;16.91;66.58
53506;BME280;39388;50.936;6.848;2023-02-17T14:22:32;101329.81;;;16.93;66.36
53506;BME280;39388;50.936;6.848;2023-02-17T14:25:04;101344.44;;;17.01;66.40
53506;BME280;39388;50.936;6.848;2023-02-17T14:27:47;101351.41;;;17.00;66.33
53506;BME280;39388;50.936;6.848;2023-02-17T14:33:45;101345.28;;;17.01;66.04
53506;BME280;39388;50.936;6.848;2023-02-17T14:35:59;101347.25;;;16.91;66.05
53506;BME280;39388;50.936;6.848;2023-02-17T14:38:32;101363.75;;;16.92;66.07
53506;BME280;39388;50.936;6.848;2023-02-17T14:41:07;101371.56;;;16.92;66.28
53506;BME280;39388;50.936;6.848;2023-02-17T14:43:41;101363.84;;;16.86;66.32
53506;BME280;39388;50.936;6.848;2023-02-17T14:46:11;101377.66;;;16.91;66.15
53506;BME280;39388;50.936;6.848;2023-02-17T14:48:41;101360.34;;;16.88;66.17
53506;BME280;39388;50.936;6.848;2023-02-17T14:51:14;101360.31;;;16.90;66.18
53506;BME280;39388;50.936;6.848;2023-02-17T14:53:45;101371.50;;;16.93;66.29
53506;BME280;39388;50.936;6.848;2023-02-17T14:56:35;101364.00;;;16.79;66.38
53506;BME280;39388;50.936;6.848;2023-02-17T14:59:08;101391.84;;;16.76;66.46
53506;BME280;39388;50.936;6.848;2023-02-17T15:01:39;101388.47;;;16.71;66.12
53506;BME280;39388;50.936;6.848;2023-02-17T15:04:09;101402.53;;;16.62;66.06
53506;BME280;39388;50.936;6.848;2023-02-17T15:06:43;101390.53;;;16.53;66.20
53506;BME280;39388;50.936;6.848;2023-02-17T15:09:16;101383.69;;;16.47;66.27
53506;BME280;39388;50.936;6.848;2023-02-17T15:11:47;101374.44;;;16.32;66.37
53506;BME280;39388;50.936;6.848;2023-02-17T15:14:20;101396.97;;;16.33;66.55
53506;BME280;39388;50.936;6.848;2023-02-17T15:16:50;101384.16;;;16.21;66.47
53506;BME280;39388;50.936;6.848;2023-02-17T15:19:21;101397.13;;;16.24;66.24
53506;BME280;39388;50.936;6.848;2023-02-17T15:21:51;101398.22;;;16.12;66.68
53506;BME280;39388;50.936;6.848;2023-02-17T15:24:24;101400.88;;;16.09;66.50
53506;BME280;39388;50.936;6.848;2023-02-17T15:26:55;101392.28;;;16.01;66.87
53506;BME280;39388;50.936;6.848;2023-02-17T15:29:26;101407.97;;;15.98;66.77
53506;BME280;39388;50.936;6.848;2023-02-17T15:31:59;101402.00;;;15.89;67.11
53506;BME280;39388;50.936;6.848;2023-02-17T15:34:32;101417.59;;;15.91;67.15
53506;BME280;39388;50.936;6.848;2023-02-17T15:37:02;101423.69;;;15.90;67.44
53506;BME280;39388;50.936;6.848;2023-02-17T15:39:32;101435.84;;;15.86;67.53
53506;BME280;39388;50.936;6.848;2023-02-17T15:42:09;101442.00;;;15.82;67.87
53506;BME280;39388;50.936;6.848;2023-02-17T15:44:48;101418.91;;;15.60;68.25
53506;BME280;39388;50.936;6.848;2023-02-17T15:47:19;101431.91;;;15.62;68.36
53506;BME280;39388;50.936;6.848;2023-02-17T15:49:50;101433.75;;;15.55;68.13
53506;BME280;39388;50.936;6.848;2023-02-17T15:52:20;101432.91;;;15.52;68.22